createdAt,value
2023-02-15T00:05:41.250Z,1032.89
2023-02-15T00:34:11.100Z,1032.76
2023-02-15T01:02:28.578Z,1032.57
2023-02-15T01:30:45.508Z,1032.48
2023-02-15T01:58:48.695Z,1032.43
2023-02-15T02:27:04.393Z,1032.32
2023-02-15T02:55:24.917Z,1032.15
2023-02-15T03:23:55.124Z,1032.13
2023-02-15T03:52:02.388Z,1032.13
2023-02-15T04:20:16.604Z,1032.06
2023-02-15T04:48:29.433Z,1032.01
2023-02-15T05:16:42.403Z,1032.06
2023-02-15T05:45:08.589Z,1032.22
2023-02-15T06:13:28.149Z,1032.3
2023-02-15T06:41:48.889Z,1032.44
2023-02-15T07:09:53.903Z,1032.56
2023-02-15T07:38:13.060Z,1032.47
2023-02-15T08:06:31.894Z,1032.28
2023-02-15T08:34:53.765Z,1032.24
2023-02-15T09:03:01.200Z,1032.01
2023-02-15T09:32:03.434Z,1031.84
2023-02-15T10:00:47.095Z,1032.05
2023-02-15T10:29:40.331Z,1031.97
2023-02-15T10:58:40.217Z,1031.63
2023-02-15T11:27:37.420Z,1031.23
2023-02-15T11:56:37.521Z,1030.68
2023-02-15T12:25:16.156Z,1030.53
2023-02-15T12:54:10.441Z,1030.22
2023-02-15T13:23:02.594Z,1030.05
2023-02-15T13:52:05.121Z,1029.89
2023-02-15T14:21:06.864Z,1029.83
2023-02-15T14:49:35.988Z,1029.86
2023-02-15T15:18:30.267Z,1029.82
2023-02-15T15:47:18.924Z,1029.75
2023-02-15T16:16:15.000Z,1029.75
2023-02-15T16:45:13.338Z,1029.73
2023-02-15T17:14:04.991Z,1029.96
2023-02-15T17:42:24.532Z,1029.91
2023-02-15T18:10:35.949Z,1029.65
2023-02-15T18:38:45.692Z,1029.53
2023-02-15T19:07:02.265Z,1029.77
2023-02-15T19:35:55.923Z,1030.13
2023-02-15T20:04:43.529Z,1029.95
2023-02-15T20:33:38.571Z,1029.62
2023-02-15T21:02:23.189Z,1029.95
2023-02-15T21:31:16.034Z,1030.08
2023-02-15T21:59:56.354Z,1029.97
2023-02-15T22:28:59.252Z,1029.91
2023-02-15T22:58:05.728Z,1030.1
2023-02-15T23:27:16.358Z,1030.07
2023-02-15T23:56:24.117Z,1030.04
